createdAt,value
2022-08-04T00:01:04.439Z,70.44
2022-08-04T00:02:25.735Z,70.30
2022-08-04T00:03:29.437Z,70.31
2022-08-04T00:04:37.016Z,70.38
2022-08-04T00:05:41.851Z,70.43
2022-08-04T00:06:52.769Z,70.67
2022-08-04T00:08:12.850Z,70.71
2022-08-04T00:09:18.391Z,70.84
2022-08-04T00:10:22.452Z,70.69
2022-08-04T00:11:26.540Z,71.01
2022-08-04T00:12:31.578Z,70.64
2022-08-04T00:13:58.144Z,70.57
2022-08-04T00:15:03.543Z,71.03
2022-08-04T00:16:10.323Z,70.69
2022-08-04T00:17:12.133Z,71.19
2022-08-04T00:18:15.571Z,70.84
2022-08-04T00:19:18.745Z,71.65
2022-08-04T00:20:21.800Z,71.19
2022-08-04T00:21:25.457Z,71.00
2022-08-04T00:22:28.085Z,70.97
2022-08-04T00:24:10.776Z,70.87
2022-08-04T00:24:55.853Z,71.11
2022-08-04T00:25:57.722Z,71.22
2022-08-04T00:27:00.274Z,71.01
2022-08-04T00:28:02.369Z,71.19
2022-08-04T00:29:05.686Z,71.27
2022-08-04T00:30:07.865Z,71.12
2022-08-04T00:31:14.842Z,71.19
2022-08-04T00:32:34.348Z,71.06
2022-08-04T00:33:38.580Z,71.11
2022-08-04T00:34:41.211Z,71.07
2022-08-04T00:35:43.132Z,71.25
2022-08-04T00:36:44.893Z,71.29
2022-08-04T00:37:47.030Z,71.13
2022-08-04T00:38:49.237Z,71.24
2022-08-04T00:39:52.421Z,71.37
2022-08-04T00:41:00.079Z,71.38
2022-08-04T00:42:14.172Z,71.27
2022-08-04T00:43:18.979Z,71.42
2022-08-04T00:44:39.456Z,71.59
2022-08-04T00:46:16.412Z,71.57
2022-08-04T00:47:31.588Z,71.66
2022-08-04T00:49:08.854Z,71.67
2022-08-04T00:50:11.763Z,71.46
2022-08-04T00:51:13.507Z,71.16
2022-08-04T00:52:32.120Z,71.18
2022-08-04T00:53:49.859Z,71.49
2022-08-04T00:54:54.806Z,71.32
2022-08-04T00:55:56.537Z,71.07
2022-08-04T00:57:33.826Z,71.09
2022-08-04T00:58:38.617Z,71.26
2022-08-04T00:59:55.003Z,71.94
2022-08-04T01:01:02.549Z,71.64
2022-08-04T01:02:11.794Z,72.12
2022-08-04T01:03:18.957Z,72.00
2022-08-04T01:04:28.974Z,71.61
2022-08-04T01:05:37.670Z,71.41
2022-08-04T01:06:45.333Z,71.51
2022-08-04T01:08:00.877Z,71.98
2022-08-04T01:09:20.940Z,71.69
2022-08-04T01:10:32.513Z,71.93
2022-08-04T01:11:56.517Z,71.61
2022-08-04T01:12:58.929Z,71.67
2022-08-04T01:14:11.368Z,71.83
2022-08-04T01:15:20.093Z,71.55
2022-08-04T01:16:25.077Z,71.80
2022-08-04T01:17:35.812Z,71.95
2022-08-04T01:18:54.589Z,71.69
2022-08-04T01:20:08.828Z,72.29
2022-08-04T01:21:33.522Z,72.20
2022-08-04T01:22:35.223Z,72.11
2022-08-04T01:23:45.840Z,71.98
2022-08-04T01:25:07.481Z,71.97
2022-08-04T01:26:42.246Z,72.15
2022-08-04T01:28:01.575Z,72.74
2022-08-04T01:29:08.681Z,72.47
2022-08-04T01:30:10.592Z,72.14
2022-08-04T01:31:31.595Z,72.23
2022-08-04T01:32:33.331Z,71.94
2022-08-04T01:34:04.166Z,71.97
2022-08-04T01:35:47.247Z,72.01
2022-08-04T01:37:04.021Z,72.02
2022-08-04T01:38:21.474Z,72.53
2022-08-04T01:39:41.826Z,72.47
2022-08-04T01:40:44.928Z,72.85
2022-08-04T01:41:57.717Z,72.80
2022-08-04T01:43:00.761Z,72.60
2022-08-04T01:44:03.114Z,72.31
2022-08-04T01:45:07.651Z,72.44
2022-08-04T01:46:11.306Z,72.81
2022-08-04T01:47:14.815Z,72.47
2022-08-04T01:48:18.313Z,72.24
2022-08-04T01:49:21.683Z,72.29
2022-08-04T01:50:28.342Z,72.28
2022-08-04T01:51:35.263Z,72.43
2022-08-04T01:52:38.578Z,73.15
2022-08-04T01:53:42.246Z,72.95
2022-08-04T01:54:44.145Z,72.74
2022-08-04T01:55:55.065Z,72.60
2022-08-04T01:56:58.389Z,72.57
2022-08-04T01:58:00.915Z,72.56
2022-08-04T01:59:03.894Z,72.50
2022-08-04T02:00:07.165Z,72.40
2022-08-04T02:01:13.526Z,72.33
2022-08-04T02:02:15.455Z,72.33
2022-08-04T02:03:17.678Z,72.19
2022-08-04T02:04:23.458Z,72.19
2022-08-04T02:05:26.849Z,72.60
2022-08-04T02:06:48.522Z,72.50
2022-08-04T02:08:09.014Z,72.76
2022-08-04T02:09:16.630Z,72.75
2022-08-04T02:10:23.576Z,72.62
2022-08-04T02:11:25.513Z,72.51
2022-08-04T02:12:45.978Z,72.26
2022-08-04T02:13:53.642Z,72.46
2022-08-04T02:14:58.465Z,72.56
2022-08-04T02:16:05.278Z,72.52
2022-08-04T02:17:14.724Z,72.73
2022-08-04T02:18:20.003Z,72.59
2022-08-04T02:19:30.647Z,72.82
2022-08-04T02:20:35.976Z,73.04
2022-08-04T02:21:42.585Z,72.72
2022-08-04T02:23:07.992Z,73.07
2022-08-04T02:24:14.985Z,73.61
2022-08-04T02:25:20.761Z,73.51
2022-08-04T02:26:26.339Z,73.30
2022-08-04T02:27:59.871Z,73.37
2022-08-04T02:29:13.236Z,73.16
2022-08-04T02:30:15.098Z,73.04
2022-08-04T02:31:28.983Z,73.08
2022-08-04T02:32:38.974Z,73.37
2022-08-04T02:33:44.581Z,73.05
2022-08-04T02:34:53.224Z,72.96
2022-08-04T02:35:59.527Z,73.16
2022-08-04T02:37:05.360Z,73.10
2022-08-04T02:38:27.345Z,72.88
2022-08-04T02:39:41.441Z,72.94
2022-08-04T02:40:51.884Z,72.74
2022-08-04T02:41:55.972Z,72.94
2022-08-04T02:42:59.348Z,72.95
2022-08-04T02:44:05.174Z,73.06
2022-08-04T02:45:07.535Z,73.04
2022-08-04T02:46:17.732Z,72.99
2022-08-04T02:47:21.402Z,73.16
2022-08-04T02:48:30.159Z,73.08
2022-08-04T02:49:36.054Z,73.46
2022-08-04T02:50:41.040Z,73.15
2022-08-04T02:51:45.298Z,72.94
2022-08-04T02:52:49.357Z,73.47
2022-08-04T02:53:54.001Z,73.51
2022-08-04T02:54:57.376Z,73.28
2022-08-04T02:56:01.261Z,73.05
2022-08-04T02:57:04.454Z,73.04
2022-08-04T02:58:11.015Z,73.10
2022-08-04T02:59:14.054Z,73.17
2022-08-04T03:00:16.130Z,73.17
2022-08-04T03:01:17.977Z,73.08
2022-08-04T03:02:27.651Z,73.00
2022-08-04T03:03:34.833Z,73.11
2022-08-04T03:04:43.584Z,72.96
2022-08-04T03:06:00.739Z,72.80
2022-08-04T03:07:14.514Z,72.71
2022-08-04T03:08:30.517Z,72.89
2022-08-04T03:09:51.160Z,73.36
2022-08-04T03:11:08.101Z,73.18
2022-08-04T03:12:12.948Z,73.55
2022-08-04T03:13:28.179Z,73.27
2022-08-04T03:14:32.774Z,73.21
2022-08-04T03:15:51.760Z,73.09
2022-08-04T03:17:12.380Z,73.04
2022-08-04T03:18:22.992Z,73.66
2022-08-04T03:19:57.303Z,73.67
2022-08-04T03:21:13.995Z,73.56
2022-08-04T03:22:28.024Z,73.24
2022-08-04T03:23:35.856Z,73.21
2022-08-04T03:24:50.005Z,73.90
2022-08-04T03:25:57.456Z,74.10
2022-08-04T03:27:05.514Z,73.72
2022-08-04T03:28:16.374Z,73.75
2022-08-04T03:29:37.564Z,73.76
2022-08-04T03:30:51.974Z,74.20
2022-08-04T03:32:03.011Z,73.73
2022-08-04T03:33:04.782Z,73.65
2022-08-04T03:34:15.629Z,73.52
2022-08-04T03:35:36.221Z,73.82
2022-08-04T03:36:56.829Z,74.22
2022-08-04T03:37:58.622Z,74.86
2022-08-04T03:39:17.865Z,74.53
2022-08-04T03:40:25.495Z,74.28
2022-08-04T03:41:51.263Z,74.04
2022-08-04T03:43:57.850Z,74.54
2022-08-04T03:44:42.701Z,74.32
2022-08-04T03:45:50.439Z,74.08
2022-08-04T03:46:58.239Z,73.94
2022-08-04T03:48:35.579Z,73.79
2022-08-04T03:49:49.634Z,73.84
2022-08-04T03:51:32.614Z,73.45
2022-08-04T03:53:05.527Z,74.29
2022-08-04T03:54:10.447Z,73.83
2022-08-04T03:55:31.707Z,74.23
2022-08-04T03:56:37.731Z,74.30
2022-08-04T03:57:39.459Z,74.48
2022-08-04T03:58:59.900Z,74.24
2022-08-04T04:00:09.201Z,74.03
2022-08-04T04:01:19.755Z,73.73
2022-08-04T04:02:34.551Z,73.77
2022-08-04T04:03:48.945Z,73.88
2022-08-04T04:05:10.955Z,74.04
2022-08-04T04:06:15.726Z,74.78
2022-08-04T04:07:34.140Z,74.63
2022-08-04T04:08:56.973Z,74.69
2022-08-04T04:10:06.148Z,74.29
2022-08-04T04:11:11.994Z,74.10
2022-08-04T04:12:35.430Z,74.14
2022-08-04T04:13:49.577Z,74.17
2022-08-04T04:14:51.456Z,73.90
2022-08-04T04:16:07.494Z,74.60
2022-08-04T04:17:18.386Z,74.21
2022-08-04T04:18:38.484Z,74.01
2022-08-04T04:19:59.602Z,73.75
2022-08-04T04:21:04.087Z,74.27
2022-08-04T04:22:11.979Z,74.08
2022-08-04T04:23:19.877Z,74.10
2022-08-04T04:24:45.236Z,73.82
2022-08-04T04:25:49.857Z,73.85
2022-08-04T04:26:58.306Z,74.24
2022-08-04T04:28:44.928Z,74.19
2022-08-04T04:29:40.054Z,74.19
2022-08-04T04:30:53.252Z,73.91
2022-08-04T04:32:06.962Z,73.83
2022-08-04T04:33:17.934Z,73.99
2022-08-04T04:34:25.811Z,74.04
2022-08-04T04:35:39.848Z,74.00
2022-08-04T04:36:41.544Z,73.73
2022-08-04T04:37:48.648Z,73.78
2022-08-04T04:39:09.473Z,73.71
2022-08-04T04:40:23.583Z,73.87
2022-08-04T04:41:44.115Z,73.85
2022-08-04T04:42:54.812Z,74.16
2022-08-04T04:44:16.830Z,74.40
2022-08-04T04:45:41.732Z,74.49
2022-08-04T04:46:57.345Z,74.62
2022-08-04T04:48:10.872Z,74.45
2022-08-04T04:49:32.200Z,74.31
2022-08-04T04:50:53.437Z,74.38
2022-08-04T04:52:06.842Z,74.30
2022-08-04T04:53:13.743Z,74.23
2022-08-04T04:54:21.382Z,74.33
2022-08-04T04:55:27.097Z,74.40
2022-08-04T04:56:36.240Z,74.54
2022-08-04T04:57:54.123Z,74.35
2022-08-04T04:58:58.183Z,74.14
2022-08-04T05:00:02.579Z,73.91
2022-08-04T05:01:07.525Z,73.85
2022-08-04T05:02:27.773Z,74.35
2022-08-04T05:03:44.573Z,74.16
2022-08-04T05:04:58.747Z,75.03
2022-08-04T05:06:12.738Z,75.09
2022-08-04T05:07:28.736Z,74.73
2022-08-04T05:08:47.458Z,74.46
2022-08-04T05:10:13.876Z,74.53
2022-08-04T05:11:39.617Z,74.37
2022-08-04T05:14:36.573Z,74.24
2022-08-04T05:14:38.962Z,74.36
2022-08-04T05:15:44.235Z,74.25
2022-08-04T05:16:47.566Z,74.27
2022-08-04T05:17:54.355Z,74.38
2022-08-04T05:19:14.496Z,74.25
2022-08-04T05:20:48.536Z,74.33
2022-08-04T05:21:53.255Z,74.13
2022-08-04T05:22:55.067Z,74.01
2022-08-04T05:24:00.660Z,74.02
2022-08-04T05:25:04.802Z,73.97
2022-08-04T05:26:12.057Z,74.32
2022-08-04T05:27:39.831Z,74.22
2022-08-04T05:28:44.212Z,74.13
2022-08-04T05:29:53.566Z,74.48
2022-08-04T05:30:59.632Z,74.15
2022-08-04T05:32:05.227Z,74.13
2022-08-04T05:33:09.951Z,73.89
2022-08-04T05:34:14.445Z,73.86
2022-08-04T05:35:50.511Z,73.82
2022-08-04T05:36:45.928Z,74.01
2022-08-04T05:38:01.507Z,74.26
2022-08-04T05:39:04.208Z,73.96
2022-08-04T05:40:07.658Z,73.92
2022-08-04T05:41:10.589Z,74.51
2022-08-04T05:42:12.395Z,74.47
2022-08-04T05:43:14.643Z,74.32
2022-08-04T05:44:18.045Z,74.49
2022-08-04T05:45:20.467Z,74.51
2022-08-04T05:46:22.837Z,74.62
2022-08-04T05:47:25.294Z,74.93
2022-08-04T05:48:28.036Z,74.87
2022-08-04T05:49:29.980Z,75.67
2022-08-04T05:50:33.697Z,75.10
2022-08-04T05:51:35.908Z,75.11
2022-08-04T05:52:38.380Z,74.93
2022-08-04T05:53:44.620Z,75.23
2022-08-04T05:54:47.570Z,75.58
2022-08-04T05:55:58.600Z,75.22
2022-08-04T05:57:03.133Z,75.29
2022-08-04T05:58:05.161Z,75.02
2022-08-04T05:59:07.764Z,75.09
2022-08-04T06:00:31.823Z,74.95
2022-08-04T06:01:33.017Z,74.73
2022-08-04T06:02:56.604Z,74.83
2022-08-04T06:04:00.429Z,75.03
2022-08-04T06:05:02.991Z,74.97
2022-08-04T06:06:05.573Z,75.10
2022-08-04T06:07:08.299Z,76.03
2022-08-04T06:08:13.423Z,75.68
2022-08-04T06:09:16.062Z,75.47
2022-08-04T06:10:17.919Z,75.37
2022-08-04T06:11:21.065Z,75.27
2022-08-04T06:12:26.044Z,75.33
2022-08-04T06:13:49.325Z,75.10
2022-08-04T06:14:54.385Z,75.18
2022-08-04T06:16:02.413Z,75.11
2022-08-04T06:17:05.951Z,75.16
2022-08-04T06:18:33.624Z,74.86
2022-08-04T06:19:59.256Z,75.02
2022-08-04T06:21:03.668Z,74.88
2022-08-04T06:22:14.551Z,74.81
2022-08-04T06:23:17.022Z,75.04
2022-08-04T06:24:20.339Z,74.74
2022-08-04T06:25:26.809Z,74.64
2022-08-04T06:26:30.630Z,74.77
2022-08-04T06:27:33.305Z,74.63
2022-08-04T06:28:35.464Z,74.38
2022-08-04T06:29:41.106Z,74.45
2022-08-04T06:30:55.679Z,74.09
2022-08-04T06:32:28.436Z,73.70
2022-08-04T06:33:33.411Z,73.67
2022-08-04T06:34:56.051Z,73.64
2022-08-04T06:35:58.030Z,73.69
2022-08-04T06:37:00.017Z,73.64
2022-08-04T06:38:03.237Z,73.59
2022-08-04T06:39:05.705Z,73.59
2022-08-04T06:40:29.613Z,73.47
2022-08-04T06:41:31.634Z,73.32
2022-08-04T06:42:33.794Z,73.12
2022-08-04T06:43:43.079Z,73.36
2022-08-04T06:44:49.163Z,72.96
2022-08-04T06:45:51.503Z,73.45
2022-08-04T06:46:53.510Z,73.41
2022-08-04T06:47:56.574Z,72.96
2022-08-04T06:48:58.557Z,72.80
2022-08-04T06:51:24.427Z,72.55
2022-08-04T06:51:29.756Z,72.53
2022-08-04T06:52:35.108Z,72.47
2022-08-04T06:53:36.951Z,72.16
2022-08-04T06:54:38.769Z,72.53
2022-08-04T06:55:44.113Z,72.44
2022-08-04T06:56:46.473Z,72.91
2022-08-04T06:57:48.732Z,72.66
2022-08-04T06:58:50.752Z,72.49
2022-08-04T06:59:56.424Z,72.06
2022-08-04T07:01:02.283Z,71.68
2022-08-04T07:02:04.409Z,71.07
2022-08-04T07:03:07.326Z,71.49
2022-08-04T07:04:09.218Z,71.52
2022-08-04T07:05:11.751Z,71.41
2022-08-04T07:06:15.002Z,71.15
2022-08-04T07:07:17.225Z,71.44
2022-08-04T07:08:19.551Z,70.71
2022-08-04T07:09:21.386Z,70.95
2022-08-04T07:10:23.760Z,70.96
2022-08-04T07:11:26.455Z,71.06
2022-08-04T07:12:28.713Z,71.99
2022-08-04T07:13:31.755Z,70.59
2022-08-04T07:14:36.449Z,70.68
2022-08-04T07:15:39.410Z,71.21
2022-08-04T07:16:42.181Z,70.38
2022-08-04T07:17:45.710Z,70.56
2022-08-04T07:18:51.436Z,70.60
2022-08-04T07:19:53.332Z,70.58
2022-08-04T07:20:55.259Z,70.78
2022-08-04T07:22:18.069Z,70.97
2022-08-04T07:23:26.586Z,70.35
2022-08-04T07:24:31.860Z,70.20
2022-08-04T07:26:11.013Z,69.85
2022-08-04T07:26:56.476Z,69.88
2022-08-04T07:27:58.303Z,70.74
2022-08-04T07:29:00.282Z,70.48
2022-08-04T07:30:02.572Z,70.27
2022-08-04T07:31:06.611Z,70.77
2022-08-04T07:32:11.262Z,70.92
2022-08-04T07:33:13.862Z,71.00
2022-08-04T07:34:20.800Z,70.55
2022-08-04T07:36:04.953Z,70.31
2022-08-04T07:36:50.547Z,70.40
2022-08-04T07:37:53.213Z,70.81
2022-08-04T07:38:55.711Z,69.67
2022-08-04T07:39:58.379Z,69.45
2022-08-04T07:41:00.732Z,69.73
2022-08-04T07:42:03.669Z,69.65
2022-08-04T07:43:05.719Z,69.95
2022-08-04T07:44:08.226Z,69.37
2022-08-04T07:45:10.783Z,69.72
2022-08-04T07:46:12.656Z,69.67
2022-08-04T07:47:14.614Z,69.36
2022-08-04T07:48:19.022Z,69.73
2022-08-04T07:49:55.065Z,70.03
2022-08-04T07:50:44.879Z,69.96
2022-08-04T07:51:46.955Z,69.77
2022-08-04T07:53:03.585Z,69.52
2022-08-04T07:54:11.316Z,69.67
2022-08-04T07:55:13.940Z,70.24
2022-08-04T07:56:16.965Z,70.74
2022-08-04T07:57:41.374Z,69.63
2022-08-04T07:58:41.111Z,70.28
2022-08-04T07:59:45.903Z,70.11
2022-08-04T08:00:52.013Z,70.01
2022-08-04T08:01:54.286Z,69.93
2022-08-04T08:02:56.889Z,70.38
2022-08-04T08:03:59.300Z,69.76
2022-08-04T08:05:01.421Z,69.83
2022-08-04T08:06:30.340Z,69.54
2022-08-04T08:07:26.535Z,69.42
2022-08-04T08:08:28.307Z,69.68
2022-08-04T08:09:33.699Z,69.53
2022-08-04T08:10:36.193Z,69.89
2022-08-04T08:12:36.715Z,69.84
2022-08-04T08:13:00.320Z,69.96
2022-08-04T08:14:02.496Z,69.49
2022-08-04T08:15:05.745Z,69.64
2022-08-04T08:16:08.607Z,69.50
2022-08-04T08:17:10.447Z,69.60
2022-08-04T08:18:12.274Z,70.34
2022-08-04T08:19:14.711Z,70.14
2022-08-04T08:20:29.870Z,69.59
2022-08-04T08:21:32.966Z,69.33
2022-08-04T08:22:36.246Z,69.24
2022-08-04T08:23:38.825Z,69.21
2022-08-04T08:24:40.675Z,69.00
2022-08-04T08:25:42.441Z,68.75
2022-08-04T08:26:44.282Z,68.69
2022-08-04T08:27:56.429Z,68.79
2022-08-04T08:28:58.588Z,68.94
2022-08-04T08:30:00.529Z,68.96
2022-08-04T08:31:02.250Z,68.68
2022-08-04T08:32:13.323Z,69.40
2022-08-04T08:33:15.954Z,69.67
2022-08-04T08:34:27.405Z,69.16
2022-08-04T08:35:34.310Z,68.75
2022-08-04T08:36:58.075Z,68.35
2022-08-04T08:38:04.195Z,68.19
2022-08-04T08:39:26.188Z,68.36
2022-08-04T08:40:37.910Z,68.28
2022-08-04T08:41:52.214Z,68.35
2022-08-04T08:44:05.033Z,68.11
2022-08-04T08:44:56.108Z,68.91
2022-08-04T08:46:33.156Z,68.31
2022-08-04T08:48:15.593Z,68.27
2022-08-04T08:50:03.211Z,68.80
2022-08-04T08:51:15.306Z,68.28
2022-08-04T08:52:57.624Z,67.75
2022-08-04T08:53:53.859Z,68.36
2022-08-04T08:55:01.496Z,68.12
2022-08-04T08:56:03.271Z,67.82
2022-08-04T08:57:16.841Z,67.57
2022-08-04T08:58:18.617Z,67.52
2022-08-04T08:59:23.578Z,67.65
2022-08-04T09:00:39.229Z,67.62
2022-08-04T09:01:50.562Z,68.55
2022-08-04T09:03:04.614Z,66.42
2022-08-04T09:04:22.745Z,65.86
2022-08-04T09:05:44.610Z,66.42
2022-08-04T09:06:52.076Z,66.17
2022-08-04T09:07:53.784Z,66.25
2022-08-04T09:08:55.476Z,66.24
2022-08-04T09:10:03.385Z,66.20
2022-08-04T09:11:17.358Z,66.57
2022-08-04T09:12:19.390Z,65.77
2022-08-04T09:13:33.221Z,65.60
2022-08-04T09:14:41.799Z,66.21
2022-08-04T09:15:54.051Z,66.45
2022-08-04T09:17:07.063Z,66.18
2022-08-04T09:18:31.150Z,65.88
2022-08-04T09:19:39.964Z,65.42
2022-08-04T09:20:49.579Z,65.26
2022-08-04T09:21:59.580Z,64.66
2022-08-04T09:23:21.710Z,63.88
2022-08-04T09:24:35.117Z,64.14
2022-08-04T09:25:47.795Z,65.60
2022-08-04T09:27:09.876Z,64.10
2022-08-04T09:28:37.162Z,63.21
2022-08-04T09:29:56.623Z,62.69
2022-08-04T09:31:21.730Z,62.71
2022-08-04T09:32:33.799Z,61.96
2022-08-04T09:33:44.986Z,62.44
2022-08-04T09:35:15.162Z,62.20
2022-08-04T09:36:27.950Z,63.05
2022-08-04T09:37:45.616Z,62.63
2022-08-04T09:38:51.967Z,62.44
2022-08-04T09:40:02.497Z,62.32
2022-08-04T09:41:27.575Z,61.87
2022-08-04T09:42:51.325Z,61.25
2022-08-04T09:44:52.101Z,60.73
2022-08-04T09:45:42.621Z,59.93
2022-08-04T09:46:45.859Z,59.65
2022-08-04T09:47:50.442Z,60.06
2022-08-04T09:48:55.376Z,60.47
2022-08-04T09:50:09.772Z,60.67
2022-08-04T09:51:16.926Z,58.92
2022-08-04T09:52:33.315Z,59.36
2022-08-04T09:53:35.066Z,58.75
2022-08-04T09:54:46.016Z,58.09
2022-08-04T09:55:53.364Z,58.69
2022-08-04T09:57:15.355Z,59.13
2022-08-04T09:58:37.402Z,56.78
2022-08-04T09:59:39.133Z,57.05
2022-08-04T10:00:45.825Z,56.50
2022-08-04T10:01:58.998Z,58.26
2022-08-04T10:03:03.085Z,57.35
2022-08-04T10:04:10.114Z,57.77
2022-08-04T10:05:13.578Z,57.52
2022-08-04T10:06:34.489Z,56.01
2022-08-04T10:07:38.960Z,58.08
2022-08-04T10:08:59.562Z,56.82
2022-08-04T10:10:04.172Z,58.10
2022-08-04T10:11:21.950Z,55.68
2022-08-04T10:12:53.189Z,58.17
2022-08-04T10:14:02.674Z,59.29
2022-08-04T10:15:19.794Z,57.26
2022-08-04T10:16:21.520Z,57.18
2022-08-04T10:17:32.080Z,57.74
2022-08-04T10:18:40.197Z,59.59
2022-08-04T10:19:42.565Z,56.90
2022-08-04T10:21:00.195Z,55.15
2022-08-04T10:22:28.621Z,55.48
2022-08-04T10:23:56.264Z,54.92
2022-08-04T10:25:37.415Z,54.02
2022-08-04T10:26:58.942Z,53.69
2022-08-04T10:28:03.236Z,54.80
2022-08-04T10:29:13.038Z,55.57
2022-08-04T10:30:17.115Z,55.12
2022-08-04T10:31:24.905Z,53.77
2022-08-04T10:32:29.728Z,53.78
2022-08-04T10:33:33.401Z,54.93
2022-08-04T10:34:49.233Z,54.52
2022-08-04T10:35:53.734Z,53.33
2022-08-04T10:37:05.560Z,52.51
2022-08-04T10:38:10.058Z,52.97
2022-08-04T10:39:43.702Z,52.15
2022-08-04T10:40:48.205Z,52.90
2022-08-04T10:41:54.339Z,53.01
2022-08-04T10:42:56.072Z,51.90
2022-08-04T10:44:03.761Z,50.19
2022-08-04T10:45:19.413Z,49.76
2022-08-04T10:46:26.541Z,52.48
2022-08-04T10:47:38.570Z,50.51
2022-08-04T10:48:56.984Z,49.26
2022-08-04T10:50:01.189Z,51.83
2022-08-04T10:51:06.492Z,49.90
2022-08-04T10:52:25.273Z,48.98
2022-08-04T10:53:29.104Z,48.64
2022-08-04T10:54:48.417Z,49.07
2022-08-04T10:56:07.878Z,48.98
2022-08-04T10:57:33.698Z,48.06
2022-08-04T10:58:48.620Z,47.58
2022-08-04T10:59:59.048Z,46.29
2022-08-04T11:01:08.932Z,47.01
2022-08-04T11:02:36.456Z,48.06
2022-08-04T11:03:41.361Z,48.30
2022-08-04T11:04:47.092Z,43.59
2022-08-04T11:05:51.996Z,46.11
2022-08-04T11:06:54.396Z,45.61
2022-08-04T11:08:10.049Z,43.47
2022-08-04T11:09:15.238Z,44.05
2022-08-04T11:10:19.944Z,46.01
2022-08-04T11:11:24.472Z,44.50
2022-08-04T11:12:26.706Z,47.43
2022-08-04T11:13:33.225Z,44.57
2022-08-04T11:14:40.055Z,45.02
2022-08-04T11:15:45.494Z,43.83
2022-08-04T11:16:53.656Z,43.77
2022-08-04T11:18:02.373Z,42.57
2022-08-04T11:19:09.066Z,44.68
2022-08-04T11:20:33.952Z,43.81
2022-08-04T11:21:40.038Z,43.32
2022-08-04T11:22:44.911Z,42.60
2022-08-04T11:24:01.959Z,42.89
2022-08-04T11:25:06.662Z,43.56
2022-08-04T11:26:24.542Z,42.46
2022-08-04T11:27:41.302Z,43.45
2022-08-04T11:28:58.427Z,42.27
2022-08-04T11:30:06.741Z,43.36
2022-08-04T11:31:14.976Z,42.76
2022-08-04T11:32:27.250Z,43.14
2022-08-04T11:33:47.468Z,44.67
2022-08-04T11:34:53.204Z,42.43
2022-08-04T11:35:54.948Z,43.42
2022-08-04T11:37:02.585Z,42.31
2022-08-04T11:38:11.115Z,42.17
2022-08-04T11:39:23.346Z,41.12
2022-08-04T11:40:28.382Z,41.36
2022-08-04T11:41:53.393Z,41.09
2022-08-04T11:43:02.390Z,42.89
2022-08-04T11:44:10.457Z,40.26
2022-08-04T11:45:16.919Z,41.61
2022-08-04T11:46:38.378Z,41.41
2022-08-04T11:47:40.425Z,39.64
2022-08-04T11:48:56.556Z,40.77
2022-08-04T11:50:11.476Z,38.55
2022-08-04T11:51:13.804Z,39.31
2022-08-04T11:52:17.689Z,41.81
2022-08-04T11:53:22.011Z,39.56
2022-08-04T11:54:23.964Z,38.26
2022-08-04T11:55:27.388Z,41.65
2022-08-04T11:56:36.949Z,41.72
2022-08-04T11:57:39.920Z,39.16
2022-08-04T11:58:41.820Z,41.06
2022-08-04T11:59:55.785Z,38.86
2022-08-04T12:01:01.626Z,38.62
2022-08-04T12:02:21.258Z,40.62
2022-08-04T12:03:32.249Z,39.01
2022-08-04T12:04:39.448Z,39.23
2022-08-04T12:05:51.855Z,39.22
2022-08-04T12:07:21.645Z,40.44
2022-08-04T12:08:34.444Z,39.08
2022-08-04T12:09:54.820Z,39.24
2022-08-04T12:11:09.039Z,38.63
2022-08-04T12:12:21.294Z,37.77
2022-08-04T12:13:34.602Z,38.64
2022-08-04T12:14:54.762Z,40.90
2022-08-04T12:16:01.411Z,37.48
2022-08-04T12:17:05.091Z,39.94
2022-08-04T12:18:09.611Z,37.94
2022-08-04T12:19:23.995Z,39.43
2022-08-04T12:20:38.094Z,38.43
2022-08-04T12:21:50.264Z,39.08
2022-08-04T12:22:58.390Z,39.01
2022-08-04T12:24:05.808Z,37.40
2022-08-04T12:25:09.536Z,38.89
2022-08-04T12:26:16.314Z,36.95
2022-08-04T12:27:24.627Z,37.08
2022-08-04T12:29:08.111Z,37.15
2022-08-04T12:31:00.061Z,38.03
2022-08-04T12:31:40.930Z,39.16
2022-08-04T12:32:48.584Z,38.95
2022-08-04T12:34:08.782Z,37.63
2022-08-04T12:35:20.808Z,36.68
2022-08-04T12:36:28.047Z,36.08
2022-08-04T12:37:44.683Z,36.79
2022-08-04T12:38:52.934Z,37.92
2022-08-04T12:40:27.486Z,36.62
2022-08-04T12:41:25.824Z,35.69
2022-08-04T12:42:36.739Z,36.84
2022-08-04T12:43:39.658Z,37.46
2022-08-04T12:44:42.220Z,37.08
2022-08-04T12:45:48.811Z,36.56
2022-08-04T12:46:51.839Z,37.55
2022-08-04T12:47:54.800Z,37.59
2022-08-04T12:49:01.934Z,38.80
2022-08-04T12:50:05.266Z,34.87
2022-08-04T12:52:05.918Z,34.95
2022-08-04T12:52:59.040Z,35.44
2022-08-04T12:53:54.014Z,36.89
2022-08-04T12:54:57.359Z,37.84
2022-08-04T12:56:01.406Z,37.62
2022-08-04T12:57:08.276Z,34.71
2022-08-04T12:58:16.126Z,36.80
2022-08-04T12:59:18.435Z,37.07
2022-08-04T13:00:29.373Z,36.44
2022-08-04T13:02:08.624Z,36.34
2022-08-04T13:02:59.492Z,35.11
2022-08-04T13:04:05.033Z,37.65
2022-08-04T13:05:08.163Z,37.77
2022-08-04T13:06:12.362Z,37.00
2022-08-04T13:07:15.761Z,37.92
2022-08-04T13:08:20.495Z,36.47
2022-08-04T13:09:24.351Z,38.03
2022-08-04T13:10:30.696Z,35.96
2022-08-04T13:11:40.599Z,37.40
2022-08-04T13:12:52.408Z,36.94
2022-08-04T13:14:10.937Z,38.22
2022-08-04T13:15:21.039Z,36.26
2022-08-04T13:16:29.961Z,36.73
2022-08-04T13:17:42.894Z,36.88
2022-08-04T13:18:49.321Z,35.81
2022-08-04T13:19:53.104Z,35.31
2022-08-04T13:20:57.526Z,36.79
2022-08-04T13:22:02.900Z,35.77
2022-08-04T13:23:05.293Z,34.95
2022-08-04T13:24:22.787Z,35.13
2022-08-04T13:26:42.686Z,36.02
2022-08-04T13:26:57.609Z,34.70
2022-08-04T13:28:05.331Z,33.93
2022-08-04T13:29:16.230Z,36.86
2022-08-04T13:30:23.022Z,36.12
2022-08-04T13:31:27.751Z,35.88
2022-08-04T13:32:38.048Z,35.54
2022-08-04T13:33:41.669Z,36.56
2022-08-04T13:34:49.114Z,35.48
2022-08-04T13:35:56.474Z,36.23
2022-08-04T13:36:59.299Z,35.63
2022-08-04T13:38:02.269Z,36.03
2022-08-04T13:39:14.063Z,37.46
2022-08-04T13:40:16.677Z,36.65
2022-08-04T13:41:19.409Z,37.36
2022-08-04T13:42:22.753Z,35.02
2022-08-04T13:44:16.860Z,36.41
2022-08-04T13:45:08.130Z,34.80
2022-08-04T13:46:13.531Z,35.54
2022-08-04T13:47:31.995Z,35.34
2022-08-04T13:48:35.335Z,37.81
2022-08-04T13:49:54.621Z,36.69
2022-08-04T13:51:05.297Z,36.00
2022-08-04T13:52:10.878Z,36.05
2022-08-04T13:53:13.765Z,36.75
2022-08-04T13:54:15.642Z,37.51
2022-08-04T13:55:23.817Z,35.86
2022-08-04T13:56:30.566Z,35.80
2022-08-04T13:57:33.885Z,36.14
2022-08-04T13:58:40.974Z,36.75
2022-08-04T13:59:44.821Z,36.35
2022-08-04T14:00:53.925Z,36.77
2022-08-04T14:02:07.734Z,34.55
2022-08-04T14:03:21.031Z,36.29
2022-08-04T14:04:27.906Z,36.31
2022-08-04T14:05:35.364Z,36.38
2022-08-04T14:06:55.335Z,35.02
2022-08-04T14:08:15.260Z,35.63
2022-08-04T14:09:21.170Z,36.04
2022-08-04T14:10:23.327Z,35.78
2022-08-04T14:12:07.552Z,35.82
2022-08-04T14:12:59.776Z,37.74
2022-08-04T14:14:12.913Z,35.66
2022-08-04T14:16:02.540Z,36.08
2022-08-04T14:16:56.795Z,36.75
2022-08-04T14:18:18.805Z,35.58
2022-08-04T14:19:20.659Z,36.41
2022-08-04T14:20:23.899Z,34.99
2022-08-04T14:21:25.882Z,36.62
2022-08-04T14:22:31.739Z,35.19
2022-08-04T14:23:47.070Z,36.82
2022-08-04T14:24:56.242Z,35.44
2022-08-04T14:25:58.038Z,34.74
2022-08-04T14:27:01.105Z,36.76
2022-08-04T14:28:03.271Z,33.82
2022-08-04T14:29:27.533Z,36.43
2022-08-04T14:30:31.974Z,34.92
2022-08-04T14:31:34.941Z,35.84
2022-08-04T14:32:53.932Z,35.82
2022-08-04T14:34:04.303Z,36.47
2022-08-04T14:35:12.231Z,35.11
2022-08-04T14:36:15.858Z,36.42
2022-08-04T14:37:20.478Z,36.31
2022-08-04T14:38:22.723Z,36.51
2022-08-04T14:40:18.954Z,36.62
2022-08-04T14:41:06.302Z,36.54
2022-08-04T14:42:08.217Z,37.10
2022-08-04T14:43:10.134Z,34.71
2022-08-04T14:44:11.949Z,37.42
2022-08-04T14:45:13.813Z,34.79
2022-08-04T14:46:18.994Z,34.59
2022-08-04T14:47:38.507Z,33.90
2022-08-04T14:48:43.293Z,34.01
2022-08-04T14:49:56.155Z,34.64
2022-08-04T14:50:58.291Z,36.65
2022-08-04T14:52:03.214Z,35.16
2022-08-04T14:53:09.975Z,35.30
2022-08-04T14:54:18.466Z,34.68
2022-08-04T14:55:22.176Z,36.18
2022-08-04T14:56:45.058Z,37.17
2022-08-04T14:58:36.946Z,36.66
2022-08-04T14:59:10.291Z,35.89
2022-08-04T15:00:17.155Z,34.95
2022-08-04T15:01:20.846Z,34.82
2022-08-04T15:02:24.045Z,36.77
2022-08-04T15:03:32.405Z,35.31